createdAt,value
2024-05-09T00:00:36.146Z,28.35
2024-05-09T00:01:41.574Z,33.03
2024-05-09T00:02:43.770Z,29.10
2024-05-09T00:03:46.994Z,36.72
2024-05-09T00:04:49.206Z,30.58
2024-05-09T00:05:51.325Z,33.10
2024-05-09T00:06:53.374Z,33.28
2024-05-09T00:07:55.420Z,35.38
2024-05-09T00:08:57.486Z,34.83
2024-05-09T00:09:59.601Z,35.53
2024-05-09T00:11:01.994Z,34.95
2024-05-09T00:12:04.490Z,33.33
2024-05-09T00:13:07.538Z,29.60
2024-05-09T00:14:09.891Z,30.95
2024-05-09T00:15:11.861Z,35.10
2024-05-09T00:16:13.958Z,33.08
2024-05-09T00:17:16.093Z,33.78
2024-05-09T00:18:18.379Z,36.13
2024-05-09T00:19:21.044Z,37.65
2024-05-09T00:20:28.570Z,33.83
2024-05-09T00:21:41.064Z,27.77
2024-05-09T00:22:43.290Z,30.88
2024-05-09T00:23:45.482Z,32.55
2024-05-09T00:24:47.500Z,33.17
2024-05-09T00:25:49.483Z,30.67
2024-05-09T00:26:51.503Z,28.98
2024-05-09T00:27:53.562Z,29.80
2024-05-09T00:28:55.595Z,31.50
2024-05-09T00:29:57.596Z,29.77
2024-05-09T00:30:59.651Z,29.52
2024-05-09T00:32:01.759Z,28.40
2024-05-09T00:33:05.334Z,35.28
2024-05-09T00:34:08.586Z,32.92
2024-05-09T00:35:11.031Z,29.13
2024-05-09T00:36:13.065Z,30.73
2024-05-09T00:37:15.133Z,38.13
2024-05-09T00:38:17.198Z,30.95
2024-05-09T00:39:19.237Z,35.70
2024-05-09T00:40:30.826Z,33.05
2024-05-09T00:41:40.353Z,36.10
2024-05-09T00:42:42.375Z,38.38
2024-05-09T00:43:44.385Z,30.42
2024-05-09T00:44:46.404Z,39.33
2024-05-09T00:45:48.708Z,35.17
2024-05-09T00:46:54.681Z,31.55
2024-05-09T00:47:57.826Z,32.35
2024-05-09T00:49:00.709Z,30.98
2024-05-09T00:50:04.136Z,34.53
2024-05-09T00:51:06.763Z,38.22
2024-05-09T00:52:09.539Z,36.25
2024-05-09T00:53:12.900Z,33.55
2024-05-09T00:54:15.569Z,34.53
2024-05-09T00:55:17.902Z,34.60
2024-05-09T00:56:21.242Z,37.33
2024-05-09T00:57:24.063Z,34.42
2024-05-09T00:58:27.555Z,32.60
2024-05-09T00:59:30.053Z,34.05
2024-05-09T01:00:38.764Z,35.00
2024-05-09T01:01:43.444Z,30.00
2024-05-09T01:02:45.717Z,32.55
2024-05-09T01:03:50.507Z,32.22
2024-05-09T01:04:53.504Z,31.75
2024-05-09T01:05:55.796Z,32.03
2024-05-09T01:06:57.893Z,33.25
2024-05-09T01:07:59.922Z,35.42
2024-05-09T01:09:01.954Z,35.15
2024-05-09T01:10:05.533Z,39.40
2024-05-09T01:11:09.273Z,39.05
2024-05-09T01:12:11.565Z,37.83
2024-05-09T01:13:13.754Z,36.72
2024-05-09T01:14:16.002Z,32.08
2024-05-09T01:15:18.023Z,33.88
2024-05-09T01:16:20.062Z,37.38
2024-05-09T01:17:22.276Z,31.42
2024-05-09T01:18:25.022Z,30.90
2024-05-09T01:19:28.475Z,32.38
2024-05-09T01:20:39.925Z,37.75
2024-05-09T01:21:45.016Z,32.85
2024-05-09T01:22:47.514Z,41.15
2024-05-09T01:23:49.544Z,37.78
2024-05-09T01:24:52.719Z,34.17
2024-05-09T01:25:54.764Z,31.13
2024-05-09T01:26:56.803Z,32.85
2024-05-09T01:27:59.023Z,30.58
2024-05-09T01:29:01.054Z,32.75
2024-05-09T01:30:05.343Z,36.00
2024-05-09T01:31:08.976Z,34.38
2024-05-09T01:32:11.194Z,34.40
2024-05-09T01:33:15.986Z,30.67
2024-05-09T01:34:18.583Z,35.60
2024-05-09T01:35:23.529Z,34.00
2024-05-09T01:36:25.633Z,35.58
2024-05-09T01:37:27.592Z,34.40
2024-05-09T01:38:29.729Z,37.58
2024-05-09T01:39:31.767Z,39.17
2024-05-09T01:40:38.254Z,38.83
2024-05-09T01:41:42.051Z,37.80
2024-05-09T01:42:44.022Z,39.80
2024-05-09T01:43:46.030Z,33.92
2024-05-09T01:44:48.059Z,36.92
2024-05-09T01:45:50.034Z,33.08
2024-05-09T01:46:52.095Z,34.45
2024-05-09T01:47:54.435Z,34.70
2024-05-09T01:48:56.705Z,34.47
2024-05-09T01:49:58.798Z,32.40
2024-05-09T01:51:00.917Z,31.50
2024-05-09T01:52:02.975Z,32.03
2024-05-09T01:53:05.063Z,31.70
2024-05-09T01:54:07.147Z,30.90
2024-05-09T01:55:09.269Z,28.80
2024-05-09T01:56:11.386Z,28.17
2024-05-09T01:57:13.451Z,32.03
2024-05-09T01:58:15.997Z,30.95
2024-05-09T01:59:18.052Z,35.13
2024-05-09T02:00:30.222Z,35.03
2024-05-09T02:01:56.217Z,31.50
2024-05-09T02:02:59.967Z,32.75
2024-05-09T02:04:02.535Z,32.22
2024-05-09T02:05:05.026Z,30.13
2024-05-09T02:06:07.304Z,31.25
2024-05-09T02:07:09.412Z,30.80
2024-05-09T02:08:15.830Z,30.48
2024-05-09T02:09:18.131Z,34.40
2024-05-09T02:10:26.199Z,33.70
2024-05-09T02:11:40.530Z,34.60
2024-05-09T02:12:42.673Z,39.50
2024-05-09T02:13:44.706Z,35.15
2024-05-09T02:14:46.728Z,38.97
2024-05-09T02:15:52.442Z,40.88
2024-05-09T02:16:54.581Z,35.63
2024-05-09T02:17:56.906Z,34.63
2024-05-09T02:18:59.123Z,32.63
2024-05-09T02:20:01.264Z,32.40
2024-05-09T02:21:03.535Z,38.30
2024-05-09T02:22:05.650Z,31.58
2024-05-09T02:23:08.433Z,38.35
2024-05-09T02:24:10.546Z,32.58
2024-05-09T02:25:12.589Z,35.08
2024-05-09T02:26:14.719Z,33.47
2024-05-09T02:27:16.738Z,34.15
2024-05-09T02:28:20.698Z,29.55
2024-05-09T02:29:22.880Z,33.90
2024-05-09T02:30:34.947Z,26.67
2024-05-09T02:31:41.561Z,29.25
2024-05-09T02:32:43.695Z,33.75
2024-05-09T02:33:46.050Z,36.03
2024-05-09T02:34:48.334Z,35.85
2024-05-09T02:35:50.363Z,32.25
2024-05-09T02:36:56.041Z,37.05
2024-05-09T02:37:58.088Z,40.28
2024-05-09T02:39:00.081Z,36.15
2024-05-09T02:40:02.224Z,41.65
2024-05-09T02:41:04.882Z,38.33
2024-05-09T02:42:06.947Z,32.88
2024-05-09T02:43:12.193Z,32.22
2024-05-09T02:44:14.903Z,32.63
2024-05-09T02:45:16.924Z,30.15
2024-05-09T02:46:18.932Z,30.00
2024-05-09T02:47:21.076Z,33.10
2024-05-09T02:48:23.523Z,32.03
2024-05-09T02:49:25.850Z,32.03
2024-05-09T02:50:34.556Z,36.58
2024-05-09T02:51:40.865Z,37.10
2024-05-09T02:52:42.925Z,31.60
2024-05-09T02:53:44.999Z,33.20
2024-05-09T02:54:47.070Z,33.80
2024-05-09T02:55:49.100Z,29.25
2024-05-09T02:56:51.223Z,27.88
2024-05-09T02:57:53.275Z,31.88
2024-05-09T02:58:56.779Z,36.95
2024-05-09T02:59:58.863Z,30.85
2024-05-09T03:01:01.359Z,37.67
2024-05-09T03:02:03.534Z,32.20
2024-05-09T03:03:06.134Z,34.72
2024-05-09T03:04:08.625Z,32.63
2024-05-09T03:05:10.795Z,29.83
2024-05-09T03:06:12.782Z,27.08
2024-05-09T03:07:14.768Z,28.17
2024-05-09T03:08:16.800Z,31.15
2024-05-09T03:09:18.813Z,28.40
2024-05-09T03:10:25.609Z,33.35
2024-05-09T03:11:30.745Z,31.73
2024-05-09T03:12:33.587Z,30.13
2024-05-09T03:13:38.623Z,32.20
2024-05-09T03:14:40.658Z,25.88
2024-05-09T03:15:43.156Z,28.42
2024-05-09T03:16:45.307Z,25.60
2024-05-09T03:17:47.445Z,28.85
2024-05-09T03:18:49.771Z,28.55
2024-05-09T03:19:51.842Z,24.60
2024-05-09T03:20:53.933Z,26.30
2024-05-09T03:21:55.970Z,23.10
2024-05-09T03:22:58.022Z,25.52
2024-05-09T03:24:00.102Z,29.70
2024-05-09T03:25:02.097Z,26.48
2024-05-09T03:26:04.260Z,25.40
2024-05-09T03:27:06.505Z,24.98
2024-05-09T03:28:08.541Z,26.20
2024-05-09T03:29:10.749Z,28.02
2024-05-09T03:30:25.603Z,30.38
2024-05-09T03:31:32.830Z,23.13
2024-05-09T03:32:34.894Z,25.80
2024-05-09T03:33:38.133Z,26.30
2024-05-09T03:34:40.230Z,22.83
2024-05-09T03:35:42.999Z,24.77
2024-05-09T03:36:45.663Z,22.33
2024-05-09T03:37:47.905Z,25.63
2024-05-09T03:38:51.006Z,31.25
2024-05-09T03:39:53.337Z,28.85
2024-05-09T03:40:55.402Z,23.65
2024-05-09T03:41:57.563Z,24.38
2024-05-09T03:42:59.610Z,25.20
2024-05-09T03:44:01.694Z,30.63
2024-05-09T03:45:03.816Z,30.90
2024-05-09T03:46:05.821Z,28.38
2024-05-09T03:47:07.828Z,30.55
2024-05-09T03:48:10.245Z,29.65
2024-05-09T03:49:12.786Z,29.58
2024-05-09T03:50:22.034Z,29.52
2024-05-09T03:51:27.944Z,25.15
2024-05-09T03:52:29.979Z,27.23
2024-05-09T03:53:32.086Z,30.92
2024-05-09T03:54:36.577Z,30.42
2024-05-09T03:55:39.060Z,25.85
2024-05-09T03:56:41.163Z,28.27
2024-05-09T03:57:43.242Z,32.30
2024-05-09T03:58:45.359Z,30.65
2024-05-09T03:59:47.374Z,29.85
2024-05-09T04:00:49.414Z,29.42
2024-05-09T04:01:51.598Z,29.80
2024-05-09T04:02:53.712Z,28.00
2024-05-09T04:03:56.272Z,27.90
2024-05-09T04:04:58.471Z,31.05
2024-05-09T04:06:00.507Z,33.90
2024-05-09T04:07:02.987Z,31.45
2024-05-09T04:08:05.316Z,28.58
2024-05-09T04:09:07.367Z,29.10
2024-05-09T04:10:16.980Z,27.23
2024-05-09T04:11:25.709Z,30.45
2024-05-09T04:12:27.865Z,29.95
2024-05-09T04:13:29.945Z,36.40
2024-05-09T04:14:32.005Z,32.95
2024-05-09T04:15:34.110Z,38.22
2024-05-09T04:16:36.115Z,36.63
2024-05-09T04:17:38.608Z,33.22
2024-05-09T04:18:40.854Z,33.92
2024-05-09T04:19:42.979Z,34.20
2024-05-09T04:20:45.075Z,34.78
2024-05-09T04:21:47.119Z,36.35
2024-05-09T04:22:49.208Z,36.90
2024-05-09T04:23:51.260Z,32.33
2024-05-09T04:24:53.267Z,32.67
2024-05-09T04:25:55.594Z,35.00
2024-05-09T04:26:57.602Z,36.28
2024-05-09T04:27:59.681Z,37.35
2024-05-09T04:29:01.818Z,34.38
2024-05-09T04:30:06.152Z,33.83
2024-05-09T04:31:09.814Z,31.83
2024-05-09T04:32:11.942Z,34.40
2024-05-09T04:33:14.968Z,30.05
2024-05-09T04:34:17.543Z,32.90
2024-05-09T04:35:22.340Z,30.60
2024-05-09T04:36:24.387Z,31.23
2024-05-09T04:37:26.479Z,33.67
2024-05-09T04:38:30.322Z,31.83
2024-05-09T04:39:32.347Z,33.70
2024-05-09T04:40:36.676Z,29.00
2024-05-09T04:41:39.672Z,30.90
2024-05-09T04:42:41.691Z,29.90
2024-05-09T04:43:43.723Z,29.38
2024-05-09T04:44:45.720Z,32.08
2024-05-09T04:45:47.711Z,33.42
2024-05-09T04:46:49.780Z,28.48
2024-05-09T04:47:52.179Z,30.27
2024-05-09T04:48:54.580Z,32.47
2024-05-09T04:49:56.768Z,30.38
2024-05-09T04:50:58.866Z,30.20
2024-05-09T04:52:01.562Z,28.55
2024-05-09T04:53:03.790Z,27.92
2024-05-09T04:54:08.438Z,35.65
2024-05-09T04:55:10.566Z,23.63
2024-05-09T04:56:12.581Z,25.90
2024-05-09T04:57:14.739Z,28.70
2024-05-09T04:58:16.742Z,27.13
2024-05-09T04:59:19.624Z,26.33
2024-05-09T05:00:28.933Z,25.58
2024-05-09T05:01:37.580Z,27.25
2024-05-09T05:02:39.687Z,28.65
2024-05-09T05:03:42.220Z,27.20
2024-05-09T05:04:44.638Z,29.92
2024-05-09T05:05:47.070Z,26.83
2024-05-09T05:06:49.166Z,27.27
2024-05-09T05:07:51.191Z,26.83
2024-05-09T05:08:53.280Z,26.23
2024-05-09T05:09:55.307Z,25.42
2024-05-09T05:10:57.388Z,24.60
2024-05-09T05:12:01.997Z,28.40
2024-05-09T05:13:17.982Z,31.38
2024-05-09T05:14:20.907Z,31.02
2024-05-09T05:15:22.990Z,25.52
2024-05-09T05:16:25.007Z,24.95
2024-05-09T05:17:27.237Z,25.38
2024-05-09T05:18:29.555Z,23.77
2024-05-09T05:19:31.780Z,29.70
2024-05-09T05:20:34.406Z,28.92
2024-05-09T05:21:36.485Z,23.50
2024-05-09T05:22:38.539Z,27.10
2024-05-09T05:23:43.701Z,23.35
2024-05-09T05:24:45.722Z,26.73
2024-05-09T05:25:48.821Z,24.58
2024-05-09T05:26:51.007Z,24.30
2024-05-09T05:27:53.143Z,22.58
2024-05-09T05:28:55.278Z,25.73
2024-05-09T05:29:57.302Z,26.30
2024-05-09T05:30:59.585Z,23.02
2024-05-09T05:32:01.704Z,21.25
2024-05-09T05:33:07.384Z,24.58
2024-05-09T05:34:09.650Z,23.35
2024-05-09T05:35:11.770Z,21.30
2024-05-09T05:36:13.823Z,23.73
2024-05-09T05:37:15.870Z,20.98
2024-05-09T05:38:19.114Z,21.85
2024-05-09T05:39:21.946Z,25.23
2024-05-09T05:40:32.400Z,19.95
2024-05-09T05:41:38.165Z,21.48
2024-05-09T05:42:40.216Z,22.45
2024-05-09T05:43:42.192Z,20.42
2024-05-09T05:44:44.223Z,21.45
2024-05-09T05:45:46.568Z,18.52
2024-05-09T05:46:48.620Z,17.23
2024-05-09T05:47:51.352Z,22.75
2024-05-09T05:48:53.785Z,19.77
2024-05-09T05:49:55.922Z,23.35
2024-05-09T05:50:59.454Z,22.60
2024-05-09T05:52:03.114Z,19.52
2024-05-09T05:53:06.085Z,22.20
2024-05-09T05:54:08.194Z,21.30
2024-05-09T05:55:10.240Z,19.83
2024-05-09T05:56:12.316Z,23.13
2024-05-09T05:57:15.348Z,19.45
2024-05-09T05:58:17.367Z,20.33
2024-05-09T05:59:19.430Z,23.08
2024-05-09T06:00:29.707Z,19.70
2024-05-09T06:01:39.374Z,22.80
2024-05-09T06:02:41.631Z,19.30
2024-05-09T06:03:43.974Z,21.20
2024-05-09T06:04:46.227Z,16.70
2024-05-09T06:05:48.367Z,18.50
2024-05-09T06:06:50.425Z,17.52
2024-05-09T06:07:52.651Z,18.52
2024-05-09T06:08:54.799Z,18.92
2024-05-09T06:09:56.860Z,18.05
2024-05-09T06:10:58.962Z,18.35
2024-05-09T06:12:01.286Z,17.67
2024-05-09T06:13:03.470Z,21.45
2024-05-09T06:14:05.624Z,15.55
2024-05-09T06:15:07.867Z,17.70
2024-05-09T06:16:10.095Z,17.67
2024-05-09T06:17:12.230Z,15.75
2024-05-09T06:18:15.828Z,17.65
2024-05-09T06:19:18.907Z,18.75
2024-05-09T06:20:31.242Z,17.02
2024-05-09T06:21:37.391Z,14.85
2024-05-09T06:22:39.391Z,16.00
2024-05-09T06:23:47.735Z,21.75
2024-05-09T06:24:49.800Z,19.13
2024-05-09T06:25:52.384Z,20.17
2024-05-09T06:26:54.540Z,23.55
2024-05-09T06:27:56.625Z,19.70
2024-05-09T06:29:00.702Z,16.33
2024-05-09T06:30:02.998Z,16.40
2024-05-09T06:31:05.679Z,16.77
2024-05-09T06:32:07.764Z,18.42
2024-05-09T06:33:12.289Z,16.02
2024-05-09T06:34:18.705Z,11.75
2024-05-09T06:35:20.883Z,18.30
2024-05-09T06:36:22.874Z,19.80
2024-05-09T06:37:24.863Z,15.98
2024-05-09T06:38:27.243Z,17.15
2024-05-09T06:39:29.281Z,17.40
2024-05-09T06:40:37.379Z,18.10
2024-05-09T06:41:41.522Z,14.82
2024-05-09T06:42:43.537Z,19.13
2024-05-09T06:43:45.592Z,19.63
2024-05-09T06:44:47.645Z,17.50
2024-05-09T06:45:52.444Z,17.13
2024-05-09T06:46:55.766Z,17.05
2024-05-09T06:48:00.443Z,15.85
2024-05-09T06:49:08.120Z,17.65
2024-05-09T06:50:19.624Z,19.55
2024-05-09T06:51:25.596Z,19.13
2024-05-09T06:52:27.583Z,19.25
2024-05-09T06:53:29.701Z,18.85
2024-05-09T06:54:31.828Z,19.48
2024-05-09T06:55:33.807Z,20.13
2024-05-09T06:56:36.212Z,18.58
2024-05-09T06:57:40.558Z,16.98
2024-05-09T06:58:44.408Z,19.35
2024-05-09T06:59:46.465Z,21.15
2024-05-09T07:00:48.559Z,21.83
2024-05-09T07:01:50.696Z,24.23
2024-05-09T07:02:52.853Z,23.05
2024-05-09T07:03:55.036Z,18.77
2024-05-09T07:04:57.360Z,23.83
2024-05-09T07:05:59.509Z,23.08
2024-05-09T07:07:01.522Z,22.55
2024-05-09T07:08:03.894Z,24.75
2024-05-09T07:09:05.950Z,25.33
2024-05-09T07:10:12.159Z,24.65
2024-05-09T07:11:16.977Z,23.42
2024-05-09T07:12:19.274Z,24.83
2024-05-09T07:13:21.312Z,28.52
2024-05-09T07:14:23.328Z,24.45
2024-05-09T07:15:25.392Z,25.48
2024-05-09T07:16:27.371Z,29.65
2024-05-09T07:17:29.617Z,28.17
2024-05-09T07:18:32.034Z,22.92
2024-05-09T07:19:34.141Z,19.50
2024-05-09T07:20:36.174Z,23.70
2024-05-09T07:21:38.194Z,28.50
2024-05-09T07:22:40.277Z,23.95
2024-05-09T07:23:45.164Z,25.00
2024-05-09T07:24:48.125Z,25.15
2024-05-09T07:25:50.150Z,23.75
2024-05-09T07:26:52.150Z,22.15
2024-05-09T07:27:54.153Z,21.00
2024-05-09T07:28:56.162Z,23.75
2024-05-09T07:29:58.172Z,21.92
2024-05-09T07:31:00.516Z,23.05
2024-05-09T07:32:02.534Z,24.58
2024-05-09T07:33:04.994Z,20.88
2024-05-09T07:34:07.412Z,24.25
2024-05-09T07:35:09.555Z,21.98
2024-05-09T07:36:11.588Z,21.35
2024-05-09T07:37:13.906Z,21.50
2024-05-09T07:38:16.207Z,20.55
2024-05-09T07:39:18.274Z,19.95
2024-05-09T07:41:25.212Z,20.30
2024-05-09T07:42:27.214Z,18.67
2024-05-09T07:43:29.202Z,26.50
2024-05-09T07:44:31.523Z,20.70
2024-05-09T07:47:47.639Z,19.45
2024-05-09T07:53:30.354Z,16.83
2024-05-09T07:53:47.412Z,16.55
2024-05-09T07:54:53.072Z,19.17
2024-05-09T07:55:56.228Z,17.05
2024-05-09T07:56:58.718Z,15.68
2024-05-09T07:58:00.824Z,20.10
2024-05-09T07:59:02.942Z,18.42
2024-05-09T08:00:06.531Z,15.52
2024-05-09T08:01:09.039Z,19.80
2024-05-09T08:02:11.464Z,18.40
2024-05-09T08:03:13.723Z,17.02
2024-05-09T08:04:15.827Z,20.15
2024-05-09T08:05:18.017Z,20.27
2024-05-09T08:06:20.180Z,18.98
2024-05-09T08:07:22.220Z,18.33
2024-05-09T08:08:24.262Z,15.63
2024-05-09T08:09:26.360Z,17.20
2024-05-09T08:10:29.243Z,19.55
2024-05-09T08:11:32.659Z,14.95
2024-05-09T08:12:34.967Z,14.77
2024-05-09T08:13:37.088Z,18.48
2024-05-09T08:14:39.129Z,16.55
2024-05-09T08:15:41.330Z,16.05
2024-05-09T08:16:43.414Z,16.48
2024-05-09T08:17:45.563Z,17.13
2024-05-09T08:18:47.736Z,20.33
2024-05-09T08:19:49.902Z,17.50
2024-05-09T08:20:52.033Z,18.65
2024-05-09T08:21:54.146Z,16.35
2024-05-09T08:22:56.149Z,13.73
2024-05-09T08:23:58.139Z,15.95
2024-05-09T08:25:01.497Z,16.17
2024-05-09T08:26:03.618Z,19.23
2024-05-09T08:27:05.669Z,20.48
2024-05-09T08:28:08.185Z,16.15
2024-05-09T08:29:10.982Z,13.77
2024-05-09T08:30:21.574Z,16.00
2024-05-09T08:31:27.413Z,14.38
2024-05-09T08:32:32.325Z,15.07
2024-05-09T08:33:34.471Z,15.43
2024-05-09T08:34:36.631Z,13.85
2024-05-09T08:35:38.672Z,13.07
2024-05-09T08:36:40.940Z,13.65
2024-05-09T08:37:43.711Z,15.35
2024-05-09T08:38:45.784Z,16.10
2024-05-09T08:39:47.790Z,15.05
2024-05-09T08:40:52.320Z,12.35
2024-05-09T08:41:54.366Z,18.02
2024-05-09T08:42:57.409Z,12.18
2024-05-09T08:43:59.460Z,11.52
2024-05-09T08:45:01.870Z,11.88
2024-05-09T08:46:04.199Z,10.18
2024-05-09T08:47:09.216Z,13.45
2024-05-09T08:48:12.083Z,13.48
2024-05-09T08:49:15.731Z,12.43
2024-05-09T08:50:29.216Z,10.07
2024-05-09T08:51:38.285Z,9.20
2024-05-09T08:52:40.350Z,8.88
2024-05-09T08:53:42.372Z,11.25
2024-05-09T08:54:45.184Z,9.45
2024-05-09T08:55:47.511Z,10.88
2024-05-09T08:56:50.058Z,10.02
2024-05-09T08:57:53.105Z,10.70
2024-05-09T08:58:56.673Z,12.18
2024-05-09T09:00:03.505Z,14.20
2024-05-09T09:01:05.929Z,13.95
2024-05-09T09:02:11.982Z,11.75
2024-05-09T09:03:18.566Z,14.25
2024-05-09T09:04:22.177Z,14.23
2024-05-09T09:05:25.849Z,14.15
2024-05-09T09:06:28.353Z,14.15
2024-05-09T09:07:32.004Z,12.95
2024-05-09T09:08:34.011Z,10.52
2024-05-09T09:09:40.843Z,11.85
2024-05-09T09:10:43.240Z,10.48
2024-05-09T09:11:45.636Z,11.90
2024-05-09T09:12:58.047Z,10.68
2024-05-09T09:14:00.100Z,10.88
2024-05-09T09:15:02.096Z,11.85
2024-05-09T09:16:04.451Z,11.80
2024-05-09T09:17:13.121Z,10.98
2024-05-09T09:18:16.277Z,15.13
2024-05-09T09:19:18.592Z,10.40
2024-05-09T09:20:26.396Z,15.77
2024-05-09T09:21:35.567Z,13.35
2024-05-09T09:22:37.632Z,11.55
2024-05-09T09:23:39.908Z,12.25
2024-05-09T09:24:41.952Z,11.05
2024-05-09T09:25:44.055Z,11.90
2024-05-09T09:26:46.103Z,10.48
2024-05-09T09:27:48.287Z,13.55
2024-05-09T09:28:50.465Z,12.35
2024-05-09T09:29:52.470Z,10.02
2024-05-09T09:31:00.698Z,12.02
2024-05-09T09:32:04.065Z,10.60
2024-05-09T09:33:08.080Z,12.57
2024-05-09T09:34:10.299Z,10.40
2024-05-09T09:35:12.468Z,8.82
2024-05-09T09:36:14.514Z,8.73
2024-05-09T09:37:19.278Z,10.20
2024-05-09T09:38:22.998Z,8.30
2024-05-09T09:39:27.556Z,10.25
2024-05-09T09:40:35.088Z,8.73
2024-05-09T09:41:40.117Z,8.65
2024-05-09T09:42:43.296Z,9.30
2024-05-09T09:43:45.479Z,7.88
2024-05-09T09:44:57.674Z,12.23
2024-05-09T09:46:06.312Z,10.40
2024-05-09T09:47:09.592Z,9.98
2024-05-09T09:48:12.387Z,8.13
2024-05-09T09:49:15.585Z,8.73
2024-05-09T09:50:24.053Z,9.15
2024-05-09T09:51:33.817Z,8.13
2024-05-09T09:52:36.430Z,9.18
2024-05-09T09:53:38.713Z,6.93
2024-05-09T09:54:41.893Z,7.47
2024-05-09T09:55:43.956Z,9.15
2024-05-09T09:56:49.105Z,8.57
2024-05-09T09:57:52.146Z,7.00
2024-05-09T09:58:56.366Z,8.63
2024-05-09T09:59:58.883Z,7.75
2024-05-09T10:01:01.037Z,6.03
2024-05-09T10:02:03.244Z,10.60
2024-05-09T10:03:05.510Z,6.25
2024-05-09T10:04:07.778Z,7.05
2024-05-09T10:05:10.018Z,9.02
2024-05-09T10:06:12.348Z,6.30
2024-05-09T10:07:14.695Z,6.32
2024-05-09T10:08:17.850Z,6.70
2024-05-09T10:09:20.108Z,6.13
2024-05-09T10:10:30.012Z,6.57
2024-05-09T10:11:41.866Z,5.30
2024-05-09T10:13:08.099Z,5.80
2024-05-09T10:14:10.534Z,6.60
2024-05-09T10:15:12.619Z,9.15
2024-05-09T10:16:20.159Z,6.75
2024-05-09T10:17:22.346Z,8.95
2024-05-09T10:18:34.220Z,7.35
2024-05-09T10:19:36.623Z,6.93
2024-05-09T10:20:45.168Z,5.75
2024-05-09T10:21:47.260Z,7.03
2024-05-09T10:22:50.516Z,8.57
2024-05-09T10:24:00.039Z,7.80
2024-05-09T10:25:05.963Z,6.30
2024-05-09T10:26:08.173Z,6.85
2024-05-09T10:27:10.350Z,5.05
2024-05-09T10:28:12.623Z,5.72
2024-05-09T10:29:15.292Z,7.38
2024-05-09T10:30:29.576Z,8.20
2024-05-09T10:31:38.430Z,7.43
2024-05-09T10:32:41.044Z,7.25
2024-05-09T10:33:46.362Z,6.82
2024-05-09T10:35:01.272Z,7.90
2024-05-09T10:36:03.927Z,5.63
2024-05-09T10:37:06.298Z,7.05
2024-05-09T10:38:08.441Z,6.32
2024-05-09T10:39:13.403Z,8.07
2024-05-09T10:41:19.898Z,7.45
2024-05-09T10:42:22.239Z,5.72
2024-05-09T10:43:24.809Z,7.05
2024-05-09T10:44:26.877Z,6.30
2024-05-09T10:45:28.902Z,8.35
2024-05-09T10:46:31.045Z,7.00
2024-05-09T10:47:33.271Z,8.30
2024-05-09T10:48:38.349Z,7.40
2024-05-09T10:49:40.663Z,6.50
2024-05-09T10:50:43.825Z,8.27
2024-05-09T10:51:47.251Z,8.30
2024-05-09T10:52:52.713Z,7.40
2024-05-09T10:53:56.752Z,7.13
2024-05-09T10:55:00.354Z,8.60
2024-05-09T10:56:02.915Z,9.40
2024-05-09T10:57:05.180Z,9.88
2024-05-09T10:58:16.972Z,8.45
2024-05-09T10:59:19.071Z,9.55
2024-05-09T11:00:27.655Z,8.43
2024-05-09T11:01:35.548Z,8.50
2024-05-09T11:02:37.858Z,9.05
2024-05-09T11:03:40.337Z,9.50
2024-05-09T11:04:45.166Z,8.95
2024-05-09T11:05:47.631Z,10.95
2024-05-09T11:06:49.717Z,9.32
2024-05-09T11:07:51.717Z,9.48
2024-05-09T11:08:53.846Z,10.00
2024-05-09T11:09:55.876Z,10.75
2024-05-09T11:10:59.682Z,10.90
2024-05-09T11:12:02.809Z,9.98
2024-05-09T11:13:05.062Z,8.75
2024-05-09T11:14:13.445Z,8.95
2024-05-09T11:15:16.553Z,10.38
2024-05-09T11:16:20.474Z,9.30
2024-05-09T11:17:23.159Z,11.35
2024-05-09T11:18:28.978Z,8.18
2024-05-09T11:19:33.505Z,9.60
2024-05-09T11:20:37.501Z,9.63
2024-05-09T11:21:39.825Z,8.43
2024-05-09T11:22:43.279Z,9.10
2024-05-09T11:23:45.458Z,7.65
2024-05-09T11:24:47.635Z,8.75
2024-05-09T11:25:50.344Z,8.27
2024-05-09T11:26:52.456Z,9.18
2024-05-09T11:27:58.131Z,8.73
2024-05-09T11:29:00.183Z,7.97
2024-05-09T11:30:02.369Z,8.27
2024-05-09T11:31:09.865Z,8.25
2024-05-09T11:32:13.687Z,7.50
2024-05-09T11:33:16.809Z,8.40
2024-05-09T11:34:18.920Z,9.48
2024-05-09T11:35:21.170Z,9.00
2024-05-09T11:36:23.156Z,8.65
2024-05-09T11:37:25.306Z,7.78
2024-05-09T11:38:27.370Z,10.02
2024-05-09T11:39:29.561Z,6.93
2024-05-09T11:41:35.962Z,8.68
2024-05-09T11:42:38.461Z,7.60
2024-05-09T11:43:40.457Z,10.05
2024-05-09T11:44:42.467Z,8.30
2024-05-09T11:45:44.474Z,7.82
2024-05-09T11:46:46.559Z,7.28
2024-05-09T11:47:48.861Z,11.40
2024-05-09T11:48:51.091Z,8.10
2024-05-09T11:49:54.787Z,7.80
2024-05-09T11:50:56.891Z,7.05
2024-05-09T11:51:59.067Z,7.13
2024-05-09T11:53:01.085Z,7.22
2024-05-09T11:54:03.083Z,7.55
2024-05-09T11:55:05.277Z,6.25
2024-05-09T11:56:07.394Z,5.53
2024-05-09T11:57:09.789Z,9.45
2024-05-09T11:58:13.751Z,4.45
2024-05-09T11:59:15.783Z,7.05
2024-05-09T12:00:25.220Z,7.28
2024-05-09T12:01:35.587Z,8.27
2024-05-09T12:02:37.720Z,7.82
2024-05-09T12:03:39.915Z,8.38
2024-05-09T12:04:42.187Z,6.90
2024-05-09T12:05:44.463Z,7.82
2024-05-09T12:06:46.587Z,8.25
2024-05-09T12:07:48.598Z,6.55
2024-05-09T12:08:50.663Z,7.57
2024-05-09T12:09:52.717Z,8.93
2024-05-09T12:10:54.988Z,8.98
2024-05-09T12:11:57.236Z,8.02
2024-05-09T12:12:59.301Z,6.35
2024-05-09T12:14:01.328Z,6.28
2024-05-09T12:15:03.423Z,11.50
2024-05-09T12:16:05.916Z,7.72
2024-05-09T12:17:08.051Z,7.75
2024-05-09T12:18:10.299Z,7.90
2024-05-09T12:19:17.172Z,7.65
2024-05-09T12:20:28.537Z,8.38
2024-05-09T12:21:37.355Z,9.10
2024-05-09T12:22:39.359Z,11.38
2024-05-09T12:23:41.371Z,10.50
2024-05-09T12:24:43.392Z,10.70
2024-05-09T12:25:45.467Z,7.97
2024-05-09T12:26:47.527Z,8.25
2024-05-09T12:27:49.596Z,10.10
2024-05-09T12:28:51.649Z,9.20
2024-05-09T12:29:53.685Z,6.85
2024-05-09T12:30:55.709Z,9.27
2024-05-09T12:31:57.801Z,10.45
2024-05-09T12:32:59.921Z,9.20
2024-05-09T12:34:02.143Z,7.43
2024-05-09T12:35:04.368Z,12.60
2024-05-09T12:36:06.555Z,6.15
2024-05-09T12:37:08.583Z,7.40
2024-05-09T12:38:10.644Z,7.63
2024-05-09T12:39:12.628Z,7.75
2024-05-09T12:40:22.908Z,7.20
2024-05-09T12:41:32.811Z,8.50
2024-05-09T12:42:34.890Z,9.05
2024-05-09T12:43:36.958Z,7.20
2024-05-09T12:44:38.974Z,8.00
2024-05-09T12:45:41.041Z,8.40
2024-05-09T12:46:43.113Z,7.20
2024-05-09T12:47:45.129Z,8.93
2024-05-09T12:48:47.376Z,10.32
2024-05-09T12:49:49.682Z,9.18
2024-05-09T12:50:51.891Z,6.07
2024-05-09T12:51:53.996Z,6.97
2024-05-09T12:52:56.100Z,8.35
2024-05-09T12:53:58.048Z,5.95
2024-05-09T12:55:00.093Z,8.07
2024-05-09T12:56:03.849Z,8.35
2024-05-09T12:57:06.957Z,6.07
2024-05-09T12:58:09.192Z,8.10
2024-05-09T12:59:11.364Z,7.18
2024-05-09T13:00:23.365Z,7.53
2024-05-09T13:01:30.314Z,7.07
2024-05-09T13:02:32.579Z,10.40
2024-05-09T13:03:34.953Z,6.63
2024-05-09T13:04:37.252Z,7.15
2024-05-09T13:05:41.522Z,8.93
2024-05-09T13:06:43.887Z,8.73
2024-05-09T13:07:47.348Z,5.55
2024-05-09T13:08:49.428Z,6.68
2024-05-09T13:09:52.689Z,5.53
2024-05-09T13:10:54.877Z,6.82
2024-05-09T13:11:57.167Z,6.63
2024-05-09T13:13:00.116Z,6.85
2024-05-09T13:14:02.420Z,8.25
2024-05-09T13:15:04.696Z,9.32
2024-05-09T13:16:07.011Z,5.88
2024-05-09T13:17:09.348Z,7.05
2024-05-09T13:18:11.794Z,5.47
2024-05-09T13:19:13.900Z,4.72
2024-05-09T13:20:25.694Z,5.70
2024-05-09T13:21:31.641Z,5.60
2024-05-09T13:22:33.648Z,6.55
2024-05-09T13:23:37.904Z,5.68
2024-05-09T13:24:39.909Z,7.25
2024-05-09T13:25:42.027Z,5.20
2024-05-09T13:26:44.021Z,6.93
2024-05-09T13:27:46.028Z,4.63
2024-05-09T13:28:48.067Z,6.20
2024-05-09T13:29:50.046Z,5.75
2024-05-09T13:30:52.119Z,4.70
2024-05-09T13:31:54.202Z,4.95
2024-05-09T13:32:56.324Z,6.32
2024-05-09T13:33:58.616Z,8.25
2024-05-09T13:35:00.688Z,5.80
2024-05-09T13:36:02.794Z,6.78
2024-05-09T13:37:04.918Z,7.25
2024-05-09T13:38:07.031Z,6.22
2024-05-09T13:39:09.064Z,4.82
2024-05-09T13:40:14.218Z,6.03
2024-05-09T13:41:16.418Z,5.68
2024-05-09T13:42:18.413Z,4.97
2024-05-09T13:43:22.990Z,7.97
2024-05-09T13:44:25.344Z,5.93
2024-05-09T13:45:27.361Z,7.38
2024-05-09T13:46:29.467Z,5.80
2024-05-09T13:47:31.813Z,4.28
2024-05-09T13:48:34.699Z,4.25
2024-05-09T13:49:37.025Z,5.15
2024-05-09T13:50:39.453Z,5.22
2024-05-09T13:51:41.554Z,4.60